Humidity-temperature Sensor

Selected Measurement Type: Air Temperature

 
Air Temperature [°C]     6 entries per hour
Showing data from 10/31/2014 (00:00:00 Z) to 10/30/2014 (00:01:00 Z)
Previous Next [ Day | 3-Days | 7-Days ]
First Last
Prev [ Day | 3-Days | 7-Days ] Next
First Last

Start Time:     :
End Time:     :     
Time (in GMT) :00 :50 :40 :30 :20 :10
Previous Next [ Day | 3-Days | 7-Days ]
First Last
Prev [ Day | 3-Days | 7-Days ] Next
First Last


123 => good data
MM => data is determined as missing
-- => data not received/configured
Back to Top Back to Top
10/31/2014 00:00 to 23:10 25.56 25.51 25.46 25.46 25.38 25.27
10/30/2014 23:00 to 22:10 25.25 25.34 25.39 25.42 25.19 25.36
10/30/2014 22:00 to 21:10 25.21 25.11 25.24 25.16 25.09 25.13
10/30/2014 21:00 to 20:10 25.05 25.18 25.14 25.08 25.19 25.18
10/30/2014 20:00 to 19:10 25.25 25.10 25.13 25.12 25.07 24.95
10/30/2014 19:00 to 18:10 25.01 25.01 25.00 24.91 24.80 24.57
10/30/2014 18:00 to 17:10 25.16 25.04 25.10 25.03 25.32 25.11
10/30/2014 17:00 to 16:10 25.18 25.33 25.26 25.28 25.23 25.24
10/30/2014 16:00 to 15:10 25.31 25.32 24.96 24.99 25.32 25.35
10/30/2014 15:00 to 14:10 25.12 25.12 24.89 24.76 24.63 24.63
10/30/2014 14:00 to 13:10 24.58 24.62 24.51 24.59 24.63 24.60
10/30/2014 13:00 to 12:10 24.56 24.56 24.54 24.65 24.54 24.58
10/30/2014 12:00 to 11:10 24.64 24.48 24.57 24.63 24.62 24.54
10/30/2014 11:00 to 10:10 24.53 24.65 24.55 24.60 24.53 24.71
10/30/2014 10:00 to 9:10 24.65 24.64 24.68 24.62 24.62 24.63
10/30/2014 09:00 to 8:10 24.74 24.67 24.73 24.85 24.98 24.77
10/30/2014 08:00 to 7:10 24.86 24.97 24.97 24.87 24.90 24.82
10/30/2014 07:00 to 6:10 24.85 24.90 24.87 24.79 24.84 25.02
10/30/2014 06:00 to 5:10 24.90 24.98 25.04 25.02 24.84 25.00
10/30/2014 05:00 to 4:10 24.94 24.94 24.95 24.93 24.94 24.94
10/30/2014 04:00 to 3:10 24.81 24.94 25.04 24.99 24.90 24.96
10/30/2014 03:00 to 2:10 24.84 25.00 24.83 24.91 24.94 25.00
10/30/2014 02:00 to 1:10 24.95 24.98 25.28 25.26 25.36 25.60
10/30/2014 01:00 to 0:10 25.59 25.62 25.56 25.52 25.52 25.41